Airfield :
LOGIN :

Register | Disclaimer

   EN    FR    IT 

 










Legend :    VFR   Marginal VFR   IFR   Intensive IFR   Very Intensive IFR
Visi :
Ceiling :
>= 8 km
>= 3000ft
5 to 8 km
1000 to 3000 ft
1500m to 5 km
500 to 1000 ft
800 to 1500m
200 to 500 ft
< 800m
< 200 ft
Symbols :   Thunderstorms  Fog  Heavy snow  Heavy precipitations  Wind > 20 kt
SIGMETs :     Misc.  Thunderstorms  Icing  Turbulence  Mountain Waves  Volcanic Ashes







- Airport Elevation : 511 ft
- IATA code : LHA


EDTL - Lahr Schwarzwald

CURRENT METAR :
  • 100920Z 22005KT 9999 SCT049 06/03 Q1025

EXPIRED METARs :
  • 100850Z 21006KT 9999 SCT036 BKN053 06/03 Q1024
  • 100820Z 22007KT 9999 FEW035 BKN053 05/04 Q1024
  • 100750Z 21008KT 9999 FEW017 BKN064 05/03 Q1024
  • 100720Z 23007KT 9999 FEW043 OVC068 04/03 Q1023
  • 100650Z 25007KT 9999 FEW043 OVC066 05/03 Q1023

TAF TAF EDTL
Valid from the 10 at 09:00 until the 10 at 18:00 UTC


100800Z 1009/1018 25007KT 9999 SCT040
PROB30
TEMPO 1009/1012 SHRA BKN025CB
No reported NOTAMs for that airfield.



MET'MAP, your aeronautical weather chart ! - Copyright ORBIFLY December 2007 - Disclaimer

ORBIFLY MET'MAP TEAM :

Programming & Development : Alexandra Zaïnal
Concept & Development : Baudouin d'Aumeries
Co-Development & Prog : Marc-Olivier Méhu
Technical & hardware support : Manuel Goepfert

Contact : metmap@orbifly.com




SOURCES & CREDITS :

   NOAA